Details From KOAJ - Albert J Ellis
To KPGV - Pitt Greenville
Flight Number -
Tags Decoded
Created
Modified
Stats Distance 50 nm / 93 km
Max Altitude 0 ft / 0 m
Waypoints 2
Social Downloads 1
Likes 0
Share VATSIM

Download

Looking for another format? Having issues loading an existing format? Contact us
Advertisement - Login to hide

Notes

Decoded

Route

KOAJ KPGV

ID Type Via Altitude Latitude Longitude Leg Dist Tot Dist Heading (true) Name
O KOAJ APT - 0 ft / 0 m 34.82219˚ -77.62042˚ - 0 nm - -
O KPGV APT - 0 ft / 0 m 35.63774˚ -77.39386˚ 50 nm 50 nm 13° / 13° Pitt Greenville

Altitude Profile

Advertisement - Login to hide

KOAJ

Details ICAO KOAJ (OAJ)
Name ALBERT J ELLIS
Region United States
Timezone America/New_York (UTC-5.0)
Stats Elevation 94 ft / 29 m (AMSL)
Location 34.829158° -77.612142°
Runways 1
Magnetic Variation 9.708° W

METAR

KOAJ 131456Z AUTO 30010G17KT 260V350 10SM CLR 03/M13 A3001 RMK AO2 SLP168 T00281128 51014

Decode

TAF

KOAJ 131134Z 1312/1412 30007KT P6SM SKC FM132000 24007KT P6SM SKC FM140300 21008G15KT P6SM BKN100 AMD LTD TO CLD VIS AND WIND

Decode

Departure Runways

ID Width Length Bearing (true) Bearing (mag) Surface Threshold Offset Overrun Length
05 150 ft / 46 m 7,103 ft / 2,165 m 44.26° 53.97° Asphalt 0 ft / 0 m 0 ft / 0 m
23 150 ft / 46 m 7,103 ft / 2,165 m 224.27° 233.98° Asphalt 0 ft / 0 m 0 ft / 0 m

KPGV

Details ICAO KPGV (PGV)
Name Pitt Greenville
Region United States
Timezone America/New_York (UTC-5.0)
Stats Elevation 27 ft / 8 m (AMSL)
Location 35.635331° -77.386179°
Runways 3
Magnetic Variation 9.987° W

METAR

KPGV 131525Z AUTO 29009KT 10SM CLR 01/M12 A3002 RMK AO2

Decode

TAF

KPGV 131134Z 1312/1412 29008G15KT P6SM SKC FM131800 24006KT P6SM SKC FM140400 22011G19KT P6SM BKN100 AMD LTD TO CLD VIS AND WIND

Decode

Destination Runways

ID Width Length Bearing (true) Bearing (mag) Surface Threshold Offset Overrun Length
02 150 ft / 46 m 6,515 ft / 1,986 m 7.54° 17.53° Asphalt 0 ft / 0 m 0 ft / 0 m
08 150 ft / 46 m 4,991 ft / 1,521 m 66.64° 76.63° Asphalt 0 ft / 0 m 0 ft / 0 m
15 150 ft / 46 m 2,686 ft / 819 m 127.69° 137.68° Asphalt 0 ft / 0 m 0 ft / 0 m
20 150 ft / 46 m 6,515 ft / 1,986 m 187.54° 197.53° Asphalt 350 ft / 107 m 0 ft / 0 m
26 150 ft / 46 m 4,991 ft / 1,521 m 246.65° 256.64° Asphalt 0 ft / 0 m 0 ft / 0 m
33 150 ft / 46 m 2,686 ft / 819 m 307.69° 317.68° Asphalt 0 ft / 0 m 0 ft / 0 m

Approach Navaids

Runway Type Ident Frequency Range Bearing (true) Bearing (mag) Slope Elevation
20 Localiser IPGV 110.70 MHz 18 nm / 33 km 187.54° 197.53° - 0 ft / 0 m (AMSL)
20 Glidescope IPGV 110.70 MHz 10 nm / 19 km 187.54° 197.53° 3.00° 26 ft / 8 m (AMSL)
20 DME IPGV 110.70 MHz 18 nm / 33 km - - - 1,624 ft / 495 m (AMSL)

Popular Alternatives